createdAt,value
2023-10-10T00:02:05.351Z,22.63
2023-10-10T00:04:34.587Z,23.38
2023-10-10T00:07:05.420Z,22.25
2023-10-10T00:09:32.831Z,22.42
2023-10-10T00:12:00.016Z,23.58
2023-10-10T00:14:30.687Z,23.60
2023-10-10T00:17:00.953Z,27.98
2023-10-10T00:19:31.368Z,22.88
2023-10-10T00:21:58.965Z,25.75
2023-10-10T00:24:32.702Z,24.30
2023-10-10T00:27:16.859Z,24.80
2023-10-10T00:29:44.287Z,20.17
2023-10-10T00:32:18.881Z,24.23
2023-10-10T00:34:49.858Z,18.55
2023-10-10T00:37:22.557Z,17.90
2023-10-10T00:39:55.723Z,20.35
2023-10-10T00:42:41.695Z,22.98
2023-10-10T00:45:11.461Z,20.42
2023-10-10T00:47:51.835Z,29.25
2023-10-10T00:50:20.262Z,28.70
2023-10-10T00:52:50.292Z,23.42
2023-10-10T00:55:26.169Z,22.02
2023-10-10T00:58:00.035Z,23.67
2023-10-10T01:00:31.427Z,24.95
2023-10-10T01:03:22.488Z,23.27
2023-10-10T01:05:59.566Z,22.70
2023-10-10T01:08:32.572Z,20.27
2023-10-10T01:11:06.684Z,24.23
2023-10-10T01:13:35.152Z,25.38
2023-10-10T01:16:06.287Z,23.17
2023-10-10T01:18:41.063Z,23.52
2023-10-10T01:21:10.305Z,23.67
2023-10-10T01:23:38.889Z,23.80
2023-10-10T01:26:11.024Z,22.85
2023-10-10T01:28:38.354Z,27.73
2023-10-10T01:31:06.639Z,22.45
2023-10-10T01:33:37.922Z,22.98
2023-10-10T01:36:13.875Z,27.60
2023-10-10T01:38:57.191Z,25.27
2023-10-10T01:41:41.163Z,28.73
2023-10-10T01:44:12.635Z,29.63
2023-10-10T01:46:44.351Z,30.77
2023-10-10T01:49:20.914Z,29.00
2023-10-10T01:51:56.697Z,26.92
2023-10-10T01:54:42.861Z,27.98
2023-10-10T01:57:22.191Z,27.08
2023-10-10T01:59:52.878Z,25.80
2023-10-10T02:02:24.835Z,24.88
2023-10-10T02:05:00.961Z,25.55
2023-10-10T02:07:33.242Z,28.42
2023-10-10T02:10:21.808Z,27.30
2023-10-10T02:12:53.018Z,28.73
2023-10-10T02:15:26.705Z,30.58
2023-10-10T02:17:56.235Z,25.48
2023-10-10T02:20:26.713Z,25.83
2023-10-10T02:23:13.080Z,27.08
2023-10-10T02:25:41.189Z,29.40
2023-10-10T02:28:21.247Z,29.27
2023-10-10T02:30:53.592Z,25.50
2023-10-10T02:33:21.339Z,27.48
2023-10-10T02:35:57.736Z,27.50
2023-10-10T02:38:41.230Z,29.02
2023-10-10T02:41:31.234Z,31.50
2023-10-10T02:44:01.913Z,31.05
2023-10-10T02:46:36.740Z,29.10
2023-10-10T02:49:14.041Z,27.98
2023-10-10T02:51:44.556Z,27.85
2023-10-10T02:54:32.180Z,33.78
2023-10-10T02:57:26.184Z,31.60
2023-10-10T03:00:01.448Z,38.22
2023-10-10T03:02:42.426Z,28.08
2023-10-10T03:05:17.053Z,35.35
2023-10-10T03:07:53.131Z,34.03
2023-10-10T03:10:24.125Z,33.47
2023-10-10T03:13:05.288Z,38.75
2023-10-10T03:15:34.633Z,29.10
2023-10-10T03:18:11.307Z,29.70
2023-10-10T03:20:38.423Z,33.83
2023-10-10T03:23:06.718Z,31.65
2023-10-10T03:25:53.972Z,33.88
2023-10-10T03:28:28.910Z,34.65
2023-10-10T03:31:08.143Z,31.88
2023-10-10T03:33:38.726Z,31.23
2023-10-10T03:36:16.095Z,37.83
2023-10-10T03:38:49.171Z,32.42
2023-10-10T03:41:24.118Z,30.58
2023-10-10T03:44:14.652Z,33.95
2023-10-10T03:47:00.775Z,32.92
2023-10-10T03:49:50.712Z,34.30
2023-10-10T03:52:36.559Z,38.55
2023-10-10T03:55:22.362Z,40.92
2023-10-10T03:58:07.906Z,46.42
2023-10-10T04:01:13.443Z,42.78
2023-10-10T04:03:59.383Z,36.75
2023-10-10T04:06:45.063Z,35.60
2023-10-10T04:09:30.853Z,41.17
2023-10-10T04:12:16.829Z,46.90
2023-10-10T04:15:02.601Z,47.10
2023-10-10T04:17:48.844Z,38.70
2023-10-10T04:20:35.003Z,40.80
2023-10-10T04:23:20.987Z,34.05
2023-10-10T04:26:06.861Z,41.30
2023-10-10T04:28:52.563Z,35.05
2023-10-10T04:31:38.729Z,35.22
2023-10-10T04:34:24.568Z,36.17
2023-10-10T04:37:10.251Z,36.47
2023-10-10T04:39:56.263Z,39.65
2023-10-10T04:42:42.006Z,41.78
2023-10-10T04:45:27.932Z,34.78
2023-10-10T04:48:13.692Z,35.40
2023-10-10T04:50:59.674Z,40.97
2023-10-10T04:53:45.493Z,39.67
2023-10-10T04:56:42.180Z,38.50
2023-10-10T04:59:27.655Z,40.47
2023-10-10T05:02:13.837Z,38.95
2023-10-10T05:04:59.757Z,34.92
2023-10-10T05:07:45.844Z,40.53
2023-10-10T05:10:31.411Z,36.92
2023-10-10T05:13:17.348Z,35.97
2023-10-10T05:16:03.272Z,34.75
2023-10-10T05:18:50.791Z,35.83
2023-10-10T05:21:36.714Z,31.45
2023-10-10T05:24:10.308Z,41.35
2023-10-10T05:26:47.521Z,36.13
2023-10-10T05:29:20.615Z,34.13
2023-10-10T05:31:48.785Z,38.03
2023-10-10T05:34:16.474Z,33.28
2023-10-10T05:36:46.078Z,30.77
2023-10-10T05:39:19.069Z,37.90
2023-10-10T05:41:48.501Z,33.92
2023-10-10T05:44:17.982Z,34.53
2023-10-10T05:46:45.543Z,32.63
2023-10-10T05:49:12.766Z,35.35
2023-10-10T05:51:40.016Z,30.40
2023-10-10T05:54:12.550Z,34.95
2023-10-10T05:56:40.036Z,31.25
2023-10-10T05:59:09.488Z,31.88
2023-10-10T06:01:38.737Z,28.63
2023-10-10T06:04:08.519Z,32.55
2023-10-10T06:06:37.643Z,35.63
2023-10-10T06:09:06.523Z,30.30
2023-10-10T06:11:35.896Z,34.47
2023-10-10T06:14:05.445Z,28.77
2023-10-10T06:16:33.693Z,29.10
2023-10-10T06:19:02.533Z,31.98
2023-10-10T06:21:30.934Z,27.30
2023-10-10T06:23:58.415Z,32.03
2023-10-10T06:26:26.060Z,38.70
2023-10-10T06:28:55.140Z,25.55
2023-10-10T06:31:23.257Z,26.98
2023-10-10T06:33:51.733Z,28.50
2023-10-10T06:36:23.323Z,29.80
2023-10-10T06:39:19.208Z,30.15
2023-10-10T06:41:51.297Z,32.38
2023-10-10T06:44:33.474Z,23.35
2023-10-10T06:47:05.632Z,32.75
2023-10-10T06:49:44.801Z,26.40
2023-10-10T06:52:19.727Z,26.58
2023-10-10T06:54:55.206Z,25.30
2023-10-10T06:57:50.591Z,31.75
2023-10-10T07:00:18.356Z,27.83
2023-10-10T07:02:50.033Z,27.88
2023-10-10T07:05:20.431Z,27.95
2023-10-10T07:07:59.572Z,23.33
2023-10-10T07:10:35.062Z,28.88
2023-10-10T07:13:11.808Z,24.15
2023-10-10T07:15:41.387Z,25.80
2023-10-10T07:18:11.331Z,25.40
2023-10-10T07:20:57.176Z,23.25
2023-10-10T07:23:25.424Z,23.63
2023-10-10T07:26:02.336Z,21.92
2023-10-10T07:28:29.757Z,23.90
2023-10-10T07:30:57.088Z,19.77
2023-10-10T07:33:25.488Z,22.40
2023-10-10T07:35:56.778Z,22.05
2023-10-10T07:38:30.384Z,22.33
2023-10-10T07:40:57.607Z,22.70
2023-10-10T07:43:28.428Z,19.27
2023-10-10T07:45:59.686Z,20.55
2023-10-10T07:48:29.887Z,17.10
2023-10-10T07:51:07.212Z,20.55
2023-10-10T07:53:44.443Z,18.88
2023-10-10T07:56:12.113Z,20.85
2023-10-10T07:58:53.258Z,18.20
2023-10-10T08:01:22.039Z,17.60
2023-10-10T08:03:49.598Z,19.45
2023-10-10T08:06:23.019Z,19.48
2023-10-10T08:09:11.075Z,15.27
2023-10-10T08:11:39.356Z,17.88
2023-10-10T08:14:10.149Z,17.90
2023-10-10T08:16:44.277Z,22.50
2023-10-10T08:19:16.402Z,19.92
2023-10-10T08:21:52.973Z,16.63
2023-10-10T08:24:21.519Z,17.33
2023-10-10T08:26:52.589Z,15.70
2023-10-10T08:29:24.154Z,16.52
2023-10-10T08:31:53.093Z,14.75
2023-10-10T08:34:20.486Z,13.27
2023-10-10T08:36:49.972Z,14.50
2023-10-10T08:39:17.284Z,17.05
2023-10-10T08:41:46.157Z,20.10
2023-10-10T08:44:19.958Z,22.17
2023-10-10T08:46:48.473Z,18.38
2023-10-10T08:49:16.837Z,15.88
2023-10-10T08:51:46.185Z,19.15
2023-10-10T08:54:17.444Z,20.63
2023-10-10T08:57:04.043Z,24.20
2023-10-10T08:59:34.502Z,17.40
2023-10-10T09:02:07.852Z,17.88
2023-10-10T09:04:36.007Z,20.05
2023-10-10T09:07:09.823Z,17.50
2023-10-10T09:09:55.470Z,17.10
2023-10-10T09:12:22.885Z,22.63
2023-10-10T09:14:53.265Z,19.02
2023-10-10T09:17:34.607Z,18.08
2023-10-10T09:20:24.275Z,22.38
2023-10-10T09:23:05.903Z,19.13
2023-10-10T09:25:43.000Z,18.23
2023-10-10T09:28:16.542Z,16.42
2023-10-10T09:30:51.773Z,17.20
2023-10-10T09:33:31.191Z,17.27
2023-10-10T09:36:10.235Z,21.23
2023-10-10T09:38:46.679Z,19.13
2023-10-10T09:41:27.945Z,16.42
2023-10-10T09:44:22.786Z,15.52
2023-10-10T09:47:04.961Z,14.85
2023-10-10T09:49:53.366Z,14.77
2023-10-10T09:52:44.283Z,14.85
2023-10-10T09:55:14.471Z,12.05
2023-10-10T09:58:17.261Z,13.70
2023-10-10T10:00:44.972Z,16.60
2023-10-10T10:03:46.147Z,11.68
2023-10-10T10:07:07.518Z,15.80
2023-10-10T10:10:13.931Z,13.00
2023-10-10T10:13:38.411Z,14.07
2023-10-10T10:16:26.809Z,14.35
2023-10-10T10:19:12.985Z,12.18
2023-10-10T10:22:09.469Z,12.13
2023-10-10T10:24:46.441Z,12.60
2023-10-10T10:27:36.232Z,10.68
2023-10-10T10:30:20.928Z,11.75
2023-10-10T10:32:56.285Z,10.52
2023-10-10T10:35:50.008Z,8.85
2023-10-10T10:38:24.241Z,10.98
2023-10-10T10:41:06.036Z,9.95
2023-10-10T10:43:40.105Z,10.93
2023-10-10T10:46:15.904Z,14.90
2023-10-10T10:48:49.515Z,11.48
2023-10-10T10:51:29.197Z,12.27
2023-10-10T10:54:00.743Z,11.57
2023-10-10T10:56:36.283Z,13.40
2023-10-10T10:59:20.967Z,14.00
2023-10-10T11:01:53.747Z,9.70
2023-10-10T11:04:46.720Z,11.07
2023-10-10T11:07:27.354Z,12.63
2023-10-10T11:10:11.249Z,11.95
2023-10-10T11:12:38.574Z,9.70
2023-10-10T11:15:09.480Z,9.15
2023-10-10T11:17:41.342Z,13.15
2023-10-10T11:20:30.620Z,12.43
2023-10-10T11:23:13.253Z,8.23
2023-10-10T11:26:00.047Z,10.65
2023-10-10T11:28:38.848Z,13.45
2023-10-10T11:31:08.626Z,9.55
2023-10-10T11:33:50.205Z,10.45
2023-10-10T11:36:31.269Z,8.68
2023-10-10T11:39:18.141Z,11.23
2023-10-10T11:41:46.685Z,9.00
2023-10-10T11:44:20.361Z,10.82
2023-10-10T11:46:48.423Z,11.55
2023-10-10T11:49:18.814Z,9.52
2023-10-10T11:51:47.987Z,11.98
2023-10-10T11:54:15.494Z,11.77
2023-10-10T11:56:47.513Z,10.07
2023-10-10T11:59:15.636Z,10.82
2023-10-10T12:02:07.177Z,9.90
2023-10-10T12:04:37.905Z,10.70
2023-10-10T12:07:07.384Z,12.02
2023-10-10T12:09:35.529Z,11.68
2023-10-10T12:12:04.738Z,8.05
2023-10-10T12:14:33.313Z,10.80
2023-10-10T12:17:06.510Z,9.40
2023-10-10T12:19:38.380Z,10.60
2023-10-10T12:22:12.230Z,10.63
2023-10-10T12:24:42.940Z,8.15
2023-10-10T12:27:10.958Z,9.43
2023-10-10T12:29:41.759Z,6.82
2023-10-10T12:32:30.674Z,9.50
2023-10-10T12:35:00.959Z,9.73
2023-10-10T12:37:28.241Z,9.80
2023-10-10T12:39:55.621Z,12.32
2023-10-10T12:42:22.853Z,9.40
2023-10-10T12:44:50.298Z,7.10
2023-10-10T12:47:19.149Z,7.63
2023-10-10T12:49:46.941Z,8.32
2023-10-10T12:52:14.422Z,7.40
2023-10-10T12:54:43.360Z,10.18
2023-10-10T12:57:15.541Z,11.05
2023-10-10T12:59:49.607Z,7.57
2023-10-10T13:02:17.298Z,10.05
2023-10-10T13:04:49.595Z,7.32
2023-10-10T13:07:19.603Z,8.15
2023-10-10T13:09:48.126Z,9.13
2023-10-10T13:12:28.474Z,10.70
2023-10-10T13:15:15.574Z,7.68
2023-10-10T13:17:54.466Z,10.30
2023-10-10T13:20:25.219Z,7.53
2023-10-10T13:22:52.634Z,9.13
2023-10-10T13:25:21.660Z,9.23
2023-10-10T13:27:53.527Z,11.27
2023-10-10T13:30:24.908Z,8.43
2023-10-10T13:32:52.428Z,7.82
2023-10-10T13:35:21.495Z,7.65
2023-10-10T13:37:48.957Z,9.30
2023-10-10T13:40:22.663Z,8.98
2023-10-10T13:42:50.533Z,10.30
2023-10-10T13:45:23.132Z,9.85
2023-10-10T13:47:54.422Z,9.80
2023-10-10T13:50:45.772Z,7.85
2023-10-10T13:53:15.333Z,8.10
2023-10-10T13:55:47.227Z,7.70
2023-10-10T13:58:17.258Z,14.20
2023-10-10T14:00:57.249Z,6.80
2023-10-10T14:03:31.082Z,14.45
2023-10-10T14:06:02.091Z,7.35
2023-10-10T14:08:31.787Z,7.43
2023-10-10T14:11:01.550Z,8.60
2023-10-10T14:13:29.998Z,11.38
2023-10-10T14:15:58.573Z,9.20
2023-10-10T14:18:28.085Z,7.72
2023-10-10T14:20:55.968Z,11.38
2023-10-10T14:23:26.567Z,9.60
2023-10-10T14:26:04.320Z,6.07
2023-10-10T14:28:33.389Z,8.80
2023-10-10T14:31:00.782Z,10.77
2023-10-10T14:33:28.456Z,7.70
2023-10-10T14:35:56.040Z,9.10
2023-10-10T14:38:23.407Z,7.32
2023-10-10T14:40:50.551Z,9.13
2023-10-10T14:43:17.685Z,8.20
2023-10-10T14:45:50.002Z,7.78
2023-10-10T14:48:20.478Z,14.18
2023-10-10T14:50:53.856Z,7.97
2023-10-10T14:53:25.772Z,9.10
2023-10-10T14:55:53.223Z,7.38
2023-10-10T14:58:23.733Z,6.85
2023-10-10T15:00:53.886Z,9.23
2023-10-10T15:03:21.259Z,8.07
2023-10-10T15:05:53.207Z,6.72
2023-10-10T15:08:24.346Z,6.40
2023-10-10T15:10:52.821Z,7.53
2023-10-10T15:13:20.388Z,10.18
2023-10-10T15:15:49.362Z,11.32
2023-10-10T15:18:17.861Z,7.43
2023-10-10T15:20:52.006Z,9.30
2023-10-10T15:23:20.233Z,9.18
2023-10-10T15:25:56.849Z,11.38
2023-10-10T15:28:25.144Z,6.35
2023-10-10T15:30:52.345Z,8.30
2023-10-10T15:33:20.049Z,7.90
2023-10-10T15:35:51.380Z,8.00
2023-10-10T15:38:19.906Z,9.57
2023-10-10T15:40:47.809Z,9.30
2023-10-10T15:43:26.559Z,6.93
2023-10-10T15:46:00.528Z,12.13
2023-10-10T15:48:29.162Z,10.82
2023-10-10T15:50:58.726Z,8.13
2023-10-10T15:53:27.256Z,10.68
2023-10-10T15:56:13.255Z,7.20
2023-10-10T15:58:44.753Z,9.75
2023-10-10T16:01:16.454Z,12.93
2023-10-10T16:03:48.733Z,10.52
2023-10-10T16:06:19.718Z,11.05
2023-10-10T16:08:54.807Z,9.90
2023-10-10T16:11:29.130Z,10.50
2023-10-10T16:13:56.497Z,10.32
2023-10-10T16:16:23.572Z,8.98
2023-10-10T16:18:50.688Z,10.43
2023-10-10T16:21:18.406Z,7.95
2023-10-10T16:23:46.106Z,9.05
2023-10-10T16:26:18.116Z,8.48
2023-10-10T16:28:45.804Z,10.43
2023-10-10T16:31:18.255Z,11.50
2023-10-10T16:33:45.693Z,8.75
2023-10-10T16:36:18.625Z,9.35
2023-10-10T16:38:50.960Z,12.55
2023-10-10T16:41:20.058Z,8.68
2023-10-10T16:44:00.728Z,9.15
2023-10-10T16:46:32.379Z,9.35
2023-10-10T16:49:00.796Z,10.68
2023-10-10T16:51:28.351Z,9.13
2023-10-10T16:53:56.739Z,7.05
2023-10-10T16:56:24.428Z,9.55
2023-10-10T16:58:52.132Z,13.50
2023-10-10T17:01:24.167Z,9.20
2023-10-10T17:03:56.065Z,9.30
2023-10-10T17:06:24.399Z,10.00
2023-10-10T17:08:55.997Z,7.97
2023-10-10T17:11:24.422Z,8.50
2023-10-10T17:13:54.758Z,10.35
2023-10-10T17:16:29.973Z,8.88
2023-10-10T17:19:14.454Z,10.77
2023-10-10T17:21:43.915Z,9.10
2023-10-10T17:24:11.500Z,11.25
2023-10-10T17:26:39.073Z,8.63
2023-10-10T17:29:06.412Z,8.82
2023-10-10T17:31:33.778Z,10.95
2023-10-10T17:34:02.782Z,8.15
2023-10-10T17:36:29.982Z,9.20
2023-10-10T17:38:57.282Z,6.25
2023-10-10T17:41:25.183Z,11.15
2023-10-10T17:43:53.635Z,11.43
2023-10-10T17:46:22.770Z,10.35
2023-10-10T17:48:57.674Z,9.63
2023-10-10T17:51:25.458Z,9.25
2023-10-10T17:53:53.248Z,11.70
2023-10-10T17:56:24.419Z,8.60
2023-10-10T17:58:52.095Z,9.43
2023-10-10T18:01:22.854Z,8.82
2023-10-10T18:03:54.981Z,11.13
2023-10-10T18:06:25.222Z,8.20
2023-10-10T18:08:55.845Z,8.90
2023-10-10T18:11:27.637Z,11.70
2023-10-10T18:13:54.948Z,8.73
2023-10-10T18:16:25.189Z,8.25
2023-10-10T18:18:53.863Z,9.43
2023-10-10T18:21:22.020Z,8.63
2023-10-10T18:23:49.152Z,8.13
2023-10-10T18:26:23.663Z,7.93
2023-10-10T18:28:53.424Z,9.80
2023-10-10T18:31:30.913Z,7.03
2023-10-10T18:33:58.621Z,7.55
2023-10-10T18:36:25.909Z,10.00
2023-10-10T18:39:00.488Z,9.10
2023-10-10T18:41:27.823Z,7.25
2023-10-10T18:43:55.132Z,7.68
2023-10-10T18:46:25.472Z,9.02
2023-10-10T18:48:52.983Z,9.20
2023-10-10T18:51:20.356Z,7.93
2023-10-10T18:53:49.106Z,13.32
2023-10-10T18:56:16.445Z,7.70
2023-10-10T18:58:43.632Z,7.60
2023-10-10T19:01:15.493Z,10.70
2023-10-10T19:03:49.032Z,10.45
2023-10-10T19:06:19.948Z,8.90
2023-10-10T19:08:47.991Z,7.97
2023-10-10T19:11:17.747Z,10.50
2023-10-10T19:13:50.189Z,10.27
2023-10-10T19:16:18.952Z,12.25
2023-10-10T19:18:47.329Z,11.13
2023-10-10T19:21:19.295Z,11.35
2023-10-10T19:23:49.453Z,12.43
2023-10-10T19:26:17.328Z,10.32
2023-10-10T19:28:45.141Z,6.28
2023-10-10T19:31:15.668Z,7.90
2023-10-10T19:33:43.281Z,9.60
2023-10-10T19:36:10.488Z,9.82
2023-10-10T19:38:41.633Z,8.82
2023-10-10T19:41:11.097Z,9.38
2023-10-10T19:43:38.845Z,9.82
2023-10-10T19:46:11.775Z,8.05
2023-10-10T19:48:43.479Z,6.40
2023-10-10T19:51:19.264Z,7.43
2023-10-10T19:53:51.669Z,5.10
2023-10-10T19:56:19.062Z,11.95
2023-10-10T19:58:49.931Z,9.85
2023-10-10T20:01:17.723Z,7.22
2023-10-10T20:03:47.051Z,8.00
2023-10-10T20:06:21.331Z,6.47
2023-10-10T20:08:50.571Z,13.40
2023-10-10T20:11:17.805Z,8.65
2023-10-10T20:13:46.974Z,7.47
2023-10-10T20:16:16.037Z,10.07
2023-10-10T20:18:48.505Z,8.68
2023-10-10T20:21:17.398Z,12.38
2023-10-10T20:23:45.355Z,8.38
2023-10-10T20:26:19.416Z,7.85
2023-10-10T20:28:48.990Z,12.10
2023-10-10T20:31:18.990Z,11.70
2023-10-10T20:33:49.500Z,13.57
2023-10-10T20:36:17.808Z,8.25
2023-10-10T20:38:45.795Z,9.75
2023-10-10T20:41:15.555Z,9.23
2023-10-10T20:43:43.856Z,9.40
2023-10-10T20:46:19.287Z,11.10
2023-10-10T20:48:47.633Z,11.02
2023-10-10T20:51:14.960Z,13.57
2023-10-10T20:53:43.397Z,10.70
2023-10-10T20:56:11.204Z,12.02
2023-10-10T20:58:39.498Z,10.48
2023-10-10T21:01:12.065Z,7.57
2023-10-10T21:03:39.526Z,9.98
2023-10-10T21:06:07.112Z,10.73
2023-10-10T21:08:37.316Z,9.18
2023-10-10T21:11:12.145Z,9.02
2023-10-10T21:13:39.322Z,10.27
2023-10-10T21:16:17.398Z,9.57
2023-10-10T21:18:46.946Z,9.45
2023-10-10T21:21:15.466Z,14.55
2023-10-10T21:23:43.771Z,8.15
2023-10-10T21:26:15.895Z,9.30
2023-10-10T21:28:43.436Z,10.45
2023-10-10T21:31:12.074Z,10.98
2023-10-10T21:33:46.847Z,9.10
2023-10-10T21:36:14.638Z,9.23
2023-10-10T21:38:41.943Z,9.80
2023-10-10T21:41:10.927Z,10.00
2023-10-10T21:43:38.776Z,7.30
2023-10-10T21:46:07.027Z,12.23
2023-10-10T21:48:34.509Z,10.40
2023-10-10T21:51:07.971Z,9.10
2023-10-10T21:53:37.481Z,10.80
2023-10-10T21:56:06.505Z,10.95
2023-10-10T21:58:34.113Z,12.20
2023-10-10T22:01:03.689Z,11.05
2023-10-10T22:03:30.842Z,8.23
2023-10-10T22:05:58.186Z,12.00
2023-10-10T22:08:28.596Z,11.52
2023-10-10T22:10:58.643Z,8.07
2023-10-10T22:13:27.136Z,9.93
2023-10-10T22:15:54.248Z,11.15
2023-10-10T22:18:21.920Z,12.50
2023-10-10T22:20:49.000Z,8.98
2023-10-10T22:23:16.658Z,10.13
2023-10-10T22:25:43.674Z,11.95
2023-10-10T22:28:11.083Z,8.95
2023-10-10T22:30:38.585Z,10.32
2023-10-10T22:33:12.196Z,13.38
2023-10-10T22:35:40.798Z,9.40
2023-10-10T22:38:08.046Z,9.07
2023-10-10T22:40:35.543Z,9.52
2023-10-10T22:43:05.345Z,9.55
2023-10-10T22:45:35.295Z,11.00
2023-10-10T22:48:05.312Z,11.05
2023-10-10T22:50:33.414Z,10.05
2023-10-10T22:53:04.327Z,8.95
2023-10-10T22:55:36.068Z,11.35
2023-10-10T22:58:08.932Z,11.05
2023-10-10T23:00:37.805Z,9.77
2023-10-10T23:03:11.237Z,11.82
2023-10-10T23:05:44.120Z,6.93
2023-10-10T23:08:12.851Z,12.32
2023-10-10T23:10:41.105Z,10.85
2023-10-10T23:13:08.607Z,10.10
2023-10-10T23:15:38.993Z,11.18
2023-10-10T23:18:11.765Z,9.70
2023-10-10T23:20:42.421Z,10.63
2023-10-10T23:23:13.796Z,9.27
2023-10-10T23:25:41.143Z,9.38
2023-10-10T23:28:09.776Z,12.98
2023-10-10T23:30:40.885Z,9.90
2023-10-10T23:33:13.180Z,8.35
2023-10-10T23:35:42.545Z,10.90
2023-10-10T23:38:10.630Z,8.07
2023-10-10T23:40:42.956Z,9.10
2023-10-10T23:43:20.342Z,7.93
2023-10-10T23:45:58.168Z,10.68
2023-10-10T23:48:32.622Z,11.00
2023-10-10T23:51:01.062Z,8.98
2023-10-10T23:53:28.509Z,7.43
2023-10-10T23:56:00.838Z,9.23
2023-10-10T23:58:30.540Z,8.40
